Shedd, OR (97377)

10:22 PM PDT on September 30, 2014 (GMT -0700)
Harvest Drive | Change Station
CLOSE
Current Station
Personal Weather Station
Location: Albany, OR
Elevation: 230 ft
Nearby Weather Stations
Active Advisory: Special Statement

Elev 230 ft 44.53 °N, 123.20 °W | Updated 6 minutes ago

Clear
Clear
52.3 °F
Feels Like 52.3 °F
N
0.0
Wind Variable Wind from West

Today
High -- | Low -- °F
--% Chance of Precip.
Yesterday
High -- | Low -- °F
Precip. -- in
7:09 AM 6:54 PM
Waxing Crescent, 44% visible
Pressure 30.20 in
Visibility 10.0 miles
Clouds Clear
Dew Point 52 °F
Humidity 99%
Rainfall 0.00 in
Snow Depth 0 in , 4 in , 2 in
UV 0 out of 12
Pollen .70 out of 12
Ozone Good
PM2.5 Good
Flu Activity Not available.
METAR KCVO 010515Z AUTO 00000KT 10SM CLR 12/09 A3020 RMK AO1

More Conditions Fewer Conditions

Pressure 30.20 in
Visibility 10.0 miles
Clouds Clear
Dew Point 52 °F
Humidity 99%
Rainfall 0.00 in
Snow Depth 0 in , 4 in , 2 in
UV 0 out of 12
Pollen .70 out of 12
Ozone Good
PM2.5 Good
Flu Activity Not available.
METAR KCVO 010515Z AUTO 00000KT 10SM CLR 12/09 A3020 RMK AO1

More Conditions Fewer Conditions

10-Day Weather Forecast

Almanac

Astronomy

Sep. 30, 2014 Rise Set
Actual Time 7:09 AM PDT 6:54 PM PDT
Civil Twilight 6:40 AM PDT 7:23 PM PDT
Nautical Twilight 6:06 AM PDT 7:57 PM PDT
Astronomical Twilight 5:32 AM PDT 8:31 PM PDT
Moon 1:32 PM PDT (9/30) 11:20 PM PDT (9/30)
Length of Visible Light 12h 43m
Length of Day
11h 45m
Tomorrow will be 3m 3s shorter.
Waxing Crescent, 44% of the Moon is Illuminated
Oct 1
Waxing Crescent
Oct 1
First Quarter
Oct 8
Full
Oct 15
Last Quarter
Oct 23
New

Yesterday's Extremes

State Highs State Lows

Community

WunderPhotos

Upload Photos

1,757,857 photos uploaded!

Nearby

Air Quality

  Air Quality AQ Index Pollutant
Yesterday Good
PM2.5
Yesterday Good
OZONE
Current Good
PM2.5
Current Good
OZONE
Tuesday Good
PM2.5
Wednesday Good
PM2.5

Snow Depth

Station Depth Elevation
Schneider Meadows 0 in 5400 ft
Saddle Mountain 4 in 3250 ft
Lucky Strike 2 in 5050 ft
Chemult Alternate 0 in 4760 ft
Silver Creek 0 in 5720 ft

Earthquake Activity

City Distance Mag. Time & Date
No recent earthquake activity has been reported nearby.
Minimum magnitude displayed is 2.5.

Coastal Water Temperatures

Place Temperature
No Stations Reporting

Nearby Weather Stations